sensor_id;sensor_type;location;lat;lon;timestamp;temperature;humidity
70246;SHT30;57637;49.272;8.590;2023-08-06T00:00:21;15.53;86.82
70246;SHT30;57637;49.272;8.590;2023-08-06T00:02:47;15.44;87.05
70246;SHT30;57637;49.272;8.590;2023-08-06T00:05:13;15.40;87.19
70246;SHT30;57637;49.272;8.590;2023-08-06T00:07:38;15.40;87.26
70246;SHT30;57637;49.272;8.590;2023-08-06T00:10:04;15.50;87.08
70246;SHT30;57637;49.272;8.590;2023-08-06T00:12:30;15.55;86.95
70246;SHT30;57637;49.272;8.590;2023-08-06T00:14:55;15.57;86.66
70246;SHT30;57637;49.272;8.590;2023-08-06T00:17:20;15.60;86.51
70246;SHT30;57637;49.272;8.590;2023-08-06T00:19:46;15.62;86.52
70246;SHT30;57637;49.272;8.590;2023-08-06T00:22:11;15.64;86.44
70246;SHT30;57637;49.272;8.590;2023-08-06T00:24:36;15.64;86.46
70246;SHT30;57637;49.272;8.590;2023-08-06T00:27:02;15.74;86.33
70246;SHT30;57637;49.272;8.590;2023-08-06T00:29:28;15.78;86.25
70246;SHT30;57637;49.272;8.590;2023-08-06T00:31:53;15.82;86.08
70246;SHT30;57637;49.272;8.590;2023-08-06T00:34:18;15.82;86.05
70246;SHT30;57637;49.272;8.590;2023-08-06T00:36:44;15.88;85.94
70246;SHT30;57637;49.272;8.590;2023-08-06T00:39:09;15.90;85.82
70246;SHT30;57637;49.272;8.590;2023-08-06T00:41:35;15.90;85.91
70246;SHT30;57637;49.272;8.590;2023-08-06T00:44:00;15.88;85.82
70246;SHT30;57637;49.272;8.590;2023-08-06T00:46:26;15.92;85.78
70246;SHT30;57637;49.272;8.590;2023-08-06T00:48:52;15.94;85.73
70246;SHT30;57637;49.272;8.590;2023-08-06T00:51:17;15.97;85.68
70246;SHT30;57637;49.272;8.590;2023-08-06T00:53:43;15.94;85.64
70246;SHT30;57637;49.272;8.590;2023-08-06T00:56:09;15.92;85.64
70246;SHT30;57637;49.272;8.590;2023-08-06T00:58:35;15.94;85.63
70246;SHT30;57637;49.272;8.590;2023-08-06T01:01:01;15.94;85.63
70246;SHT30;57637;49.272;8.590;2023-08-06T01:03:28;15.91;85.72
70246;SHT30;57637;49.272;8.590;2023-08-06T01:05:53;15.88;85.73
70246;SHT30;57637;49.272;8.590;2023-08-06T01:14:13;15.95;85.44
70246;SHT30;57637;49.272;8.590;2023-08-06T01:16:46;15.98;85.39
70246;SHT30;57637;49.272;8.590;2023-08-06T01:19:19;15.98;85.31
70246;SHT30;57637;49.272;8.590;2023-08-06T01:21:46;15.98;85.32
70246;SHT30;57637;49.272;8.590;2023-08-06T01:24:11;16.00;85.21
70246;SHT30;57637;49.272;8.590;2023-08-06T01:26:39;15.94;85.14
70246;SHT30;57637;49.272;8.590;2023-08-06T01:31:55;15.88;84.99
70246;SHT30;57637;49.272;8.590;2023-08-06T01:34:27;15.85;84.90
70246;SHT30;57637;49.272;8.590;2023-08-06T01:36:55;15.84;84.99
70246;SHT30;57637;49.272;8.590;2023-08-06T01:39:21;15.77;84.98
70246;SHT30;57637;49.272;8.590;2023-08-06T01:41:50;15.80;85.00
70246;SHT30;57637;49.272;8.590;2023-08-06T01:44:15;15.80;84.92
70246;SHT30;57637;49.272;8.590;2023-08-06T01:46:41;15.78;84.89
70246;SHT30;57637;49.272;8.590;2023-08-06T01:49:06;15.81;84.81
70246;SHT30;57637;49.272;8.590;2023-08-06T01:51:32;15.85;84.55
70246;SHT30;57637;49.272;8.590;2023-08-06T01:53:57;15.85;84.44
70246;SHT30;57637;49.272;8.590;2023-08-06T01:56:23;15.91;84.42
70246;SHT30;57637;49.272;8.590;2023-08-06T01:58:48;15.91;84.38
70246;SHT30;57637;49.272;8.590;2023-08-06T02:01:14;15.95;84.39
70246;SHT30;57637;49.272;8.590;2023-08-06T02:03:39;15.92;84.43
70246;SHT30;57637;49.272;8.590;2023-08-06T02:06:04;15.92;84.47
70246;SHT30;57637;49.272;8.590;2023-08-06T02:08:30;15.92;84.51
70246;SHT30;57637;49.272;8.590;2023-08-06T02:10:55;15.94;84.50
70246;SHT30;57637;49.272;8.590;2023-08-06T02:13:20;15.92;84.58
70246;SHT30;57637;49.272;8.590;2023-08-06T02:15:46;15.90;84.74
70246;SHT30;57637;49.272;8.590;2023-08-06T02:18:14;15.91;84.89
70246;SHT30;57637;49.272;8.590;2023-08-06T02:20:40;15.87;84.99
70246;SHT30;57637;49.272;8.590;2023-08-06T02:23:06;15.88;85.01
70246;SHT30;57637;49.272;8.590;2023-08-06T02:25:31;15.85;85.00
70246;SHT30;57637;49.272;8.590;2023-08-06T02:27:57;15.85;85.03
70246;SHT30;57637;49.272;8.590;2023-08-06T02:30:22;15.84;84.95
70246;SHT30;57637;49.272;8.590;2023-08-06T02:32:47;15.82;84.87
70246;SHT30;57637;49.272;8.590;2023-08-06T02:35:13;15.84;84.83
70246;SHT30;57637;49.272;8.590;2023-08-06T02:37:38;15.81;84.89
70246;SHT30;57637;49.272;8.590;2023-08-06T02:40:04;15.80;84.86
70246;SHT30;57637;49.272;8.590;2023-08-06T02:42:29;15.77;84.88
70246;SHT30;57637;49.272;8.590;2023-08-06T02:44:55;15.72;84.98
70246;SHT30;57637;49.272;8.590;2023-08-06T02:47:20;15.70;85.16
70246;SHT30;57637;49.272;8.590;2023-08-06T02:49:46;15.65;85.09
70246;SHT30;57637;49.272;8.590;2023-08-06T02:52:11;15.61;85.22
70246;SHT30;57637;49.272;8.590;2023-08-06T02:54:37;15.62;85.27
70246;SHT30;57637;49.272;8.590;2023-08-06T02:57:02;15.60;85.19
70246;SHT30;57637;49.272;8.590;2023-08-06T02:59:27;15.57;85.23
70246;SHT30;57637;49.272;8.590;2023-08-06T03:01:53;15.60;85.25
70246;SHT30;57637;49.272;8.590;2023-08-06T03:04:18;15.62;85.13
70246;SHT30;57637;49.272;8.590;2023-08-06T03:06:43;15.65;85.05
70246;SHT30;57637;49.272;8.590;2023-08-06T03:09:09;15.62;85.03
70246;SHT30;57637;49.272;8.590;2023-08-06T03:11:34;15.65;84.97
70246;SHT30;57637;49.272;8.590;2023-08-06T03:13:59;15.64;84.98
70246;SHT30;57637;49.272;8.590;2023-08-06T03:16:25;15.67;84.91
70246;SHT30;57637;49.272;8.590;2023-08-06T03:18:50;15.72;84.92
70246;SHT30;57637;49.272;8.590;2023-08-06T03:21:15;15.71;84.87
70246;SHT30;57637;49.272;8.590;2023-08-06T03:23:41;15.74;84.88
70246;SHT30;57637;49.272;8.590;2023-08-06T03:26:07;15.77;84.65
70246;SHT30;57637;49.272;8.590;2023-08-06T03:28:32;15.80;84.52
70246;SHT30;57637;49.272;8.590;2023-08-06T03:30:58;15.80;84.47
70246;SHT30;57637;49.272;8.590;2023-08-06T03:33:27;15.77;84.10
70246;SHT30;57637;49.272;8.590;2023-08-06T03:35:52;15.80;84.19
70246;SHT30;57637;49.272;8.590;2023-08-06T03:38:17;15.78;84.37
70246;SHT30;57637;49.272;8.590;2023-08-06T03:40:43;15.78;84.26
70246;SHT30;57637;49.272;8.590;2023-08-06T03:43:08;15.77;84.34
70246;SHT30;57637;49.272;8.590;2023-08-06T03:45:33;15.75;84.28
70246;SHT30;57637;49.272;8.590;2023-08-06T03:47:59;15.72;84.22
70246;SHT30;57637;49.272;8.590;2023-08-06T03:50:24;15.71;84.12
70246;SHT30;57637;49.272;8.590;2023-08-06T03:52:49;15.74;84.02
70246;SHT30;57637;49.272;8.590;2023-08-06T03:55:15;15.71;83.98
70246;SHT30;57637;49.272;8.590;2023-08-06T03:57:40;15.71;83.90
70246;SHT30;57637;49.272;8.590;2023-08-06T04:00:06;15.68;83.93
70246;SHT30;57637;49.272;8.590;2023-08-06T04:02:32;15.67;83.92
70246;SHT30;57637;49.272;8.590;2023-08-06T04:04:57;15.62;83.89
70246;SHT30;57637;49.272;8.590;2023-08-06T04:07:24;15.65;83.99
70246;SHT30;57637;49.272;8.590;2023-08-06T04:10:00;15.57;83.96
70246;SHT30;57637;49.272;8.590;2023-08-06T04:12:29;15.55;84.16
70246;SHT30;57637;49.272;8.590;2023-08-06T04:14:55;15.51;84.08
70246;SHT30;57637;49.272;8.590;2023-08-06T04:17:22;15.51;84.24
70246;SHT30;57637;49.272;8.590;2023-08-06T04:19:51;15.48;84.31
70246;SHT30;57637;49.272;8.590;2023-08-06T04:22:17;15.50;84.41
70246;SHT30;57637;49.272;8.590;2023-08-06T04:24:43;15.46;84.28
70246;SHT30;57637;49.272;8.590;2023-08-06T04:27:09;15.43;84.37
70246;SHT30;57637;49.272;8.590;2023-08-06T04:29:35;15.46;84.38
70246;SHT30;57637;49.272;8.590;2023-08-06T04:32:01;15.46;84.43
70246;SHT30;57637;49.272;8.590;2023-08-06T04:34:26;15.41;84.47
70246;SHT30;57637;49.272;8.590;2023-08-06T04:36:52;15.38;84.37
70246;SHT30;57637;49.272;8.590;2023-08-06T04:39:17;15.43;84.36
70246;SHT30;57637;49.272;8.590;2023-08-06T04:41:42;15.40;84.31
70246;SHT30;57637;49.272;8.590;2023-08-06T04:44:08;15.44;84.30
70246;SHT30;57637;49.272;8.590;2023-08-06T04:46:33;15.44;84.20
70246;SHT30;57637;49.272;8.590;2023-08-06T04:48:58;15.40;84.12
70246;SHT30;57637;49.272;8.590;2023-08-06T04:51:24;15.44;84.29
70246;SHT30;57637;49.272;8.590;2023-08-06T04:53:49;15.44;84.15
70246;SHT30;57637;49.272;8.590;2023-08-06T04:56:14;15.48;84.12
70246;SHT30;57637;49.272;8.590;2023-08-06T04:58:41;15.50;84.14
70246;SHT30;57637;49.272;8.590;2023-08-06T05:01:06;15.50;83.99
70246;SHT30;57637;49.272;8.590;2023-08-06T05:03:31;15.51;84.14
70246;SHT30;57637;49.272;8.590;2023-08-06T05:05:57;15.54;84.05
70246;SHT30;57637;49.272;8.590;2023-08-06T05:08:22;15.57;83.73
70246;SHT30;57637;49.272;8.590;2023-08-06T05:10:47;15.65;83.67
70246;SHT30;57637;49.272;8.590;2023-08-06T05:13:13;15.64;83.47
70246;SHT30;57637;49.272;8.590;2023-08-06T05:15:38;15.65;83.48
70246;SHT30;57637;49.272;8.590;2023-08-06T05:18:07;15.67;83.83
70246;SHT30;57637;49.272;8.590;2023-08-06T05:20:35;15.68;84.05
70246;SHT30;57637;49.272;8.590;2023-08-06T05:23:01;15.67;84.19
70246;SHT30;57637;49.272;8.590;2023-08-06T05:25:26;15.58;84.57
70246;SHT30;57637;49.272;8.590;2023-08-06T05:27:51;15.60;84.95
70246;SHT30;57637;49.272;8.590;2023-08-06T05:30:18;15.51;85.24
70246;SHT30;57637;49.272;8.590;2023-08-06T05:32:43;15.44;85.53
70246;SHT30;57637;49.272;8.590;2023-08-06T05:35:09;15.41;85.73
70246;SHT30;57637;49.272;8.590;2023-08-06T05:37:34;15.40;85.94
70246;SHT30;57637;49.272;8.590;2023-08-06T05:39:59;15.40;86.09
70246;SHT30;57637;49.272;8.590;2023-08-06T05:42:25;15.38;86.18
70246;SHT30;57637;49.272;8.590;2023-08-06T05:44:51;15.37;86.26
70246;SHT30;57637;49.272;8.590;2023-08-06T05:47:16;15.34;86.16
70246;SHT30;57637;49.272;8.590;2023-08-06T05:49:41;15.33;86.21
70246;SHT30;57637;49.272;8.590;2023-08-06T05:52:07;15.27;86.16
70246;SHT30;57637;49.272;8.590;2023-08-06T05:54:33;15.26;86.26
70246;SHT30;57637;49.272;8.590;2023-08-06T05:56:58;15.30;86.32
70246;SHT30;57637;49.272;8.590;2023-08-06T05:59:24;15.29;86.35
70246;SHT30;57637;49.272;8.590;2023-08-06T06:01:49;15.34;86.23
70246;SHT30;57637;49.272;8.590;2023-08-06T06:04:14;15.29;86.17
70246;SHT30;57637;49.272;8.590;2023-08-06T06:06:40;15.26;86.32
70246;SHT30;57637;49.272;8.590;2023-08-06T06:09:06;15.27;86.31
70246;SHT30;57637;49.272;8.590;2023-08-06T06:11:32;15.22;86.23
70246;SHT30;57637;49.272;8.590;2023-08-06T06:13:57;15.26;86.31
70246;SHT30;57637;49.272;8.590;2023-08-06T06:16:23;15.34;86.17
70246;SHT30;57637;49.272;8.590;2023-08-06T06:18:48;15.37;86.19
70246;SHT30;57637;49.272;8.590;2023-08-06T06:21:13;15.44;86.03
70246;SHT30;57637;49.272;8.590;2023-08-06T06:23:39;15.48;85.94
70246;SHT30;57637;49.272;8.590;2023-08-06T06:26:04;15.51;85.94
70246;SHT30;57637;49.272;8.590;2023-08-06T06:28:29;15.51;85.81
70246;SHT30;57637;49.272;8.590;2023-08-06T06:30:59;15.61;85.97
70246;SHT30;57637;49.272;8.590;2023-08-06T06:33:26;15.61;85.60
70246;SHT30;57637;49.272;8.590;2023-08-06T06:35:51;15.60;85.71
70246;SHT30;57637;49.272;8.590;2023-08-06T06:38:16;15.60;85.71
70246;SHT30;57637;49.272;8.590;2023-08-06T06:40:42;15.64;85.56
70246;SHT30;57637;49.272;8.590;2023-08-06T06:43:07;15.62;85.43
70246;SHT30;57637;49.272;8.590;2023-08-06T06:45:32;15.67;85.52
70246;SHT30;57637;49.272;8.590;2023-08-06T06:47:58;15.78;85.51
70246;SHT30;57637;49.272;8.590;2023-08-06T06:50:23;15.92;85.36
70246;SHT30;57637;49.272;8.590;2023-08-06T06:52:49;16.01;85.10
70246;SHT30;57637;49.272;8.590;2023-08-06T06:55:14;16.12;84.83
70246;SHT30;57637;49.272;8.590;2023-08-06T06:57:39;16.22;84.34
70246;SHT30;57637;49.272;8.590;2023-08-06T07:00:05;16.26;84.30
70246;SHT30;57637;49.272;8.590;2023-08-06T07:02:31;16.33;84.01
70246;SHT30;57637;49.272;8.590;2023-08-06T07:04:56;16.49;83.54
70246;SHT30;57637;49.272;8.590;2023-08-06T07:07:22;16.64;83.10
70246;SHT30;57637;49.272;8.590;2023-08-06T07:09:47;16.74;82.75
70246;SHT30;57637;49.272;8.590;2023-08-06T07:12:12;16.63;82.70
70246;SHT30;57637;49.272;8.590;2023-08-06T07:14:38;16.67;82.65
70246;SHT30;57637;49.272;8.590;2023-08-06T07:17:04;16.66;82.90
70246;SHT30;57637;49.272;8.590;2023-08-06T07:19:29;16.62;82.94
70246;SHT30;57637;49.272;8.590;2023-08-06T07:21:55;16.57;82.77
70246;SHT30;57637;49.272;8.590;2023-08-06T07:24:21;16.52;83.10
70246;SHT30;57637;49.272;8.590;2023-08-06T07:26:46;16.49;83.28
70246;SHT30;57637;49.272;8.590;2023-08-06T07:29:12;16.59;83.01
70246;SHT30;57637;49.272;8.590;2023-08-06T07:31:37;16.62;82.79
70246;SHT30;57637;49.272;8.590;2023-08-06T07:34:02;16.67;82.71
70246;SHT30;57637;49.272;8.590;2023-08-06T07:36:28;16.69;82.91
70246;SHT30;57637;49.272;8.590;2023-08-06T07:38:53;16.67;82.87
70246;SHT30;57637;49.272;8.590;2023-08-06T07:41:22;16.69;82.93
70246;SHT30;57637;49.272;8.590;2023-08-06T07:43:48;16.55;83.52
70246;SHT30;57637;49.272;8.590;2023-08-06T07:46:13;16.55;84.05
70246;SHT30;57637;49.272;8.590;2023-08-06T07:48:38;16.43;84.07
70246;SHT30;57637;49.272;8.590;2023-08-06T07:51:04;16.43;84.33
70246;SHT30;57637;49.272;8.590;2023-08-06T07:53:29;16.38;84.56
70246;SHT30;57637;49.272;8.590;2023-08-06T07:55:55;16.33;84.61
70246;SHT30;57637;49.272;8.590;2023-08-06T07:58:22;16.34;84.89
70246;SHT30;57637;49.272;8.590;2023-08-06T08:00:49;16.60;84.65
70246;SHT30;57637;49.272;8.590;2023-08-06T08:03:14;16.84;84.55
70246;SHT30;57637;49.272;8.590;2023-08-06T08:05:44;16.99;84.11
70246;SHT30;57637;49.272;8.590;2023-08-06T08:08:09;17.03;84.35
70246;SHT30;57637;49.272;8.590;2023-08-06T08:10:35;17.20;84.08
70246;SHT30;57637;49.272;8.590;2023-08-06T08:13:04;17.27;83.27
70246;SHT30;57637;49.272;8.590;2023-08-06T08:15:30;17.37;83.39
70246;SHT30;57637;49.272;8.590;2023-08-06T08:17:56;17.51;83.34
70246;SHT30;57637;49.272;8.590;2023-08-06T08:20:22;17.81;82.93
70246;SHT30;57637;49.272;8.590;2023-08-06T08:22:47;18.03;83.09
70246;SHT30;57637;49.272;8.590;2023-08-06T08:25:13;18.47;82.56
70246;SHT30;57637;49.272;8.590;2023-08-06T08:27:39;18.70;81.63
70246;SHT30;57637;49.272;8.590;2023-08-06T08:30:04;18.83;81.39
70246;SHT30;57637;49.272;8.590;2023-08-06T08:32:30;18.92;80.75
70246;SHT30;57637;49.272;8.590;2023-08-06T08:34:56;19.22;80.11
70246;SHT30;57637;49.272;8.590;2023-08-06T08:37:22;19.32;79.36
70246;SHT30;57637;49.272;8.590;2023-08-06T08:39:48;19.10;78.71
70246;SHT30;57637;49.272;8.590;2023-08-06T08:42:13;19.19;78.85
70246;SHT30;57637;49.272;8.590;2023-08-06T08:44:40;19.19;78.92
70246;SHT30;57637;49.272;8.590;2023-08-06T08:47:07;19.16;78.86
70246;SHT30;57637;49.272;8.590;2023-08-06T08:49:35;19.14;78.68
70246;SHT30;57637;49.272;8.590;2023-08-06T08:52:02;19.18;78.31
70246;SHT30;57637;49.272;8.590;2023-08-06T08:54:31;19.14;79.16
70246;SHT30;57637;49.272;8.590;2023-08-06T08:56:57;19.36;79.52
70246;SHT30;57637;49.272;8.590;2023-08-06T08:59:22;19.31;78.54
70246;SHT30;57637;49.272;8.590;2023-08-06T09:01:48;18.84;79.41
70246;SHT30;57637;49.272;8.590;2023-08-06T09:04:18;18.60;79.65
70246;SHT30;57637;49.272;8.590;2023-08-06T09:06:45;18.56;80.00
70246;SHT30;57637;49.272;8.590;2023-08-06T09:09:12;18.78;80.24
70246;SHT30;57637;49.272;8.590;2023-08-06T09:11:44;18.75;79.77
70246;SHT30;57637;49.272;8.590;2023-08-06T09:14:10;18.91;79.85
70246;SHT30;57637;49.272;8.590;2023-08-06T09:16:37;19.19;79.34
70246;SHT30;57637;49.272;8.590;2023-08-06T09:19:06;19.97;77.36
70246;SHT30;57637;49.272;8.590;2023-08-06T09:21:32;20.52;76.44
70246;SHT30;57637;49.272;8.590;2023-08-06T09:24:01;20.52;76.19
70246;SHT30;57637;49.272;8.590;2023-08-06T09:26:34;20.57;75.48
70246;SHT30;57637;49.272;8.590;2023-08-06T09:29:01;20.28;74.86
70246;SHT30;57637;49.272;8.590;2023-08-06T09:31:32;20.04;75.63
70246;SHT30;57637;49.272;8.590;2023-08-06T09:33:59;19.74;75.79
70246;SHT30;57637;49.272;8.590;2023-08-06T09:36:26;19.36;77.96
70246;SHT30;57637;49.272;8.590;2023-08-06T09:38:52;19.23;78.52
70246;SHT30;57637;49.272;8.590;2023-08-06T09:41:26;18.87;78.56
70246;SHT30;57637;49.272;8.590;2023-08-06T09:43:53;18.56;79.61
70246;SHT30;57637;49.272;8.590;2023-08-06T09:46:19;18.49;79.96
70246;SHT30;57637;49.272;8.590;2023-08-06T09:48:45;18.36;80.44
70246;SHT30;57637;49.272;8.590;2023-08-06T09:51:14;17.99;80.83
70246;SHT30;57637;49.272;8.590;2023-08-06T09:53:40;17.79;80.94
70246;SHT30;57637;49.272;8.590;2023-08-06T09:56:06;17.55;81.83
70246;SHT30;57637;49.272;8.590;2023-08-06T09:58:32;17.49;82.50
70246;SHT30;57637;49.272;8.590;2023-08-06T10:00:58;17.52;82.08
70246;SHT30;57637;49.272;8.590;2023-08-06T10:03:25;17.55;82.21
70246;SHT30;57637;49.272;8.590;2023-08-06T10:05:50;17.31;82.20
70246;SHT30;57637;49.272;8.590;2023-08-06T10:08:16;17.37;82.53
70246;SHT30;57637;49.272;8.590;2023-08-06T10:10:42;17.35;82.58
70246;SHT30;57637;49.272;8.590;2023-08-06T10:13:08;17.39;82.53
70246;SHT30;57637;49.272;8.590;2023-08-06T10:15:35;17.42;81.81
70246;SHT30;57637;49.272;8.590;2023-08-06T10:18:03;17.45;82.31
70246;SHT30;57637;49.272;8.590;2023-08-06T10:20:34;17.38;83.05
70246;SHT30;57637;49.272;8.590;2023-08-06T10:23:03;17.25;82.74
70246;SHT30;57637;49.272;8.590;2023-08-06T10:25:31;17.20;82.52
70246;SHT30;57637;49.272;8.590;2023-08-06T10:28:00;17.08;82.53
70246;SHT30;57637;49.272;8.590;2023-08-06T10:30:32;17.10;82.20
70246;SHT30;57637;49.272;8.590;2023-08-06T10:33:02;17.13;81.89
70246;SHT30;57637;49.272;8.590;2023-08-06T10:37:58;17.21;81.72
70246;SHT30;57637;49.272;8.590;2023-08-06T10:40:24;17.18;81.61
70246;SHT30;57637;49.272;8.590;2023-08-06T10:42:51;17.17;82.04
70246;SHT30;57637;49.272;8.590;2023-08-06T10:45:17;16.99;82.45
70246;SHT30;57637;49.272;8.590;2023-08-06T10:47:44;16.86;83.21
70246;SHT30;57637;49.272;8.590;2023-08-06T10:50:13;16.62;83.79
70246;SHT30;57637;49.272;8.590;2023-08-06T10:52:42;16.63;84.41
70246;SHT30;57637;49.272;8.590;2023-08-06T10:55:11;16.42;84.58
70246;SHT30;57637;49.272;8.590;2023-08-06T10:57:37;16.34;84.86
70246;SHT30;57637;49.272;8.590;2023-08-06T11:00:06;16.32;84.92
70246;SHT30;57637;49.272;8.590;2023-08-06T11:02:36;16.36;85.06
70246;SHT30;57637;49.272;8.590;2023-08-06T11:05:08;16.21;84.93
70246;SHT30;57637;49.272;8.590;2023-08-06T11:07:35;16.18;84.94
70246;SHT30;57637;49.272;8.590;2023-08-06T11:10:05;16.16;84.96
70246;SHT30;57637;49.272;8.590;2023-08-06T11:12:32;16.09;85.21
70246;SHT30;57637;49.272;8.590;2023-08-06T11:14:58;16.08;84.84
70246;SHT30;57637;49.272;8.590;2023-08-06T11:17:24;16.06;84.81
70246;SHT30;57637;49.272;8.590;2023-08-06T11:19:50;16.00;85.16
70246;SHT30;57637;49.272;8.590;2023-08-06T11:22:17;15.95;85.04
70246;SHT30;57637;49.272;8.590;2023-08-06T11:24:43;15.95;84.93
70246;SHT30;57637;49.272;8.590;2023-08-06T11:27:12;15.94;85.06
70246;SHT30;57637;49.272;8.590;2023-08-06T11:29:38;15.85;85.30
70246;SHT30;57637;49.272;8.590;2023-08-06T11:32:07;15.94;85.33
70246;SHT30;57637;49.272;8.590;2023-08-06T11:34:33;15.94;85.18
70246;SHT30;57637;49.272;8.590;2023-08-06T11:36:59;15.88;85.15
70246;SHT30;57637;49.272;8.590;2023-08-06T11:39:24;15.78;85.19
70246;SHT30;57637;49.272;8.590;2023-08-06T11:41:50;15.77;84.96
70246;SHT30;57637;49.272;8.590;2023-08-06T11:44:16;15.78;84.97
70246;SHT30;57637;49.272;8.590;2023-08-06T11:46:54;15.80;84.73
70246;SHT30;57637;49.272;8.590;2023-08-06T11:52:18;15.95;84.22
70246;SHT30;57637;49.272;8.590;2023-08-06T11:54:45;16.06;84.15
70246;SHT30;57637;49.272;8.590;2023-08-06T11:57:33;16.13;83.54
70246;SHT30;57637;49.272;8.590;2023-08-06T12:00:03;16.18;83.21
70246;SHT30;57637;49.272;8.590;2023-08-06T12:02:31;16.13;83.05
70246;SHT30;57637;49.272;8.590;2023-08-06T12:05:20;16.25;82.69
70246;SHT30;57637;49.272;8.590;2023-08-06T12:07:49;16.26;82.82
70246;SHT30;57637;49.272;8.590;2023-08-06T12:10:20;16.28;82.63
70246;SHT30;57637;49.272;8.590;2023-08-06T12:12:46;16.26;82.51
70246;SHT30;57637;49.272;8.590;2023-08-06T12:15:12;16.30;82.35
70246;SHT30;57637;49.272;8.590;2023-08-06T12:17:38;16.28;82.49
70246;SHT30;57637;49.272;8.590;2023-08-06T12:20:04;16.23;82.46
70246;SHT30;57637;49.272;8.590;2023-08-06T12:22:31;16.30;82.69
70246;SHT30;57637;49.272;8.590;2023-08-06T12:25:00;16.30;82.61
70246;SHT30;57637;49.272;8.590;2023-08-06T12:27:41;16.38;82.68
70246;SHT30;57637;49.272;8.590;2023-08-06T12:30:08;16.34;82.63
70246;SHT30;57637;49.272;8.590;2023-08-06T12:32:34;16.28;83.37
70246;SHT30;57637;49.272;8.590;2023-08-06T12:35:00;16.02;83.53
70246;SHT30;57637;49.272;8.590;2023-08-06T12:37:26;15.92;83.53
70246;SHT30;57637;49.272;8.590;2023-08-06T12:39:52;15.91;83.94
70246;SHT30;57637;49.272;8.590;2023-08-06T12:42:18;15.87;83.81
70246;SHT30;57637;49.272;8.590;2023-08-06T12:44:44;15.90;83.81
70246;SHT30;57637;49.272;8.590;2023-08-06T12:47:09;15.91;83.81
70246;SHT30;57637;49.272;8.590;2023-08-06T12:49:35;15.95;82.80
70246;SHT30;57637;49.272;8.590;2023-08-06T12:52:00;16.00;82.79
70246;SHT30;57637;49.272;8.590;2023-08-06T12:54:27;16.13;82.59
70246;SHT30;57637;49.272;8.590;2023-08-06T12:56:53;16.25;82.40
70246;SHT30;57637;49.272;8.590;2023-08-06T12:59:18;16.29;81.97
70246;SHT30;57637;49.272;8.590;2023-08-06T13:01:44;16.25;82.00
70246;SHT30;57637;49.272;8.590;2023-08-06T13:04:10;16.32;81.62
70246;SHT30;57637;49.272;8.590;2023-08-06T13:06:36;16.39;81.27
70246;SHT30;57637;49.272;8.590;2023-08-06T13:09:06;16.46;81.23
70246;SHT30;57637;49.272;8.590;2023-08-06T13:11:33;16.48;80.92
70246;SHT30;57637;49.272;8.590;2023-08-06T13:14:09;16.57;80.35
70246;SHT30;57637;49.272;8.590;2023-08-06T13:16:36;16.60;80.19
70246;SHT30;57637;49.272;8.590;2023-08-06T13:19:03;16.60;80.32
70246;SHT30;57637;49.272;8.590;2023-08-06T13:21:33;16.53;80.78
70246;SHT30;57637;49.272;8.590;2023-08-06T13:24:03;16.59;80.69
70246;SHT30;57637;49.272;8.590;2023-08-06T13:26:29;16.49;81.43
70246;SHT30;57637;49.272;8.590;2023-08-06T13:28:56;16.36;83.05
70246;SHT30;57637;49.272;8.590;2023-08-06T13:31:25;16.36;83.76
70246;SHT30;57637;49.272;8.590;2023-08-06T13:33:51;16.29;84.18
70246;SHT30;57637;49.272;8.590;2023-08-06T13:36:19;16.25;84.96
70246;SHT30;57637;49.272;8.590;2023-08-06T13:38:44;16.21;84.94
70246;SHT30;57637;49.272;8.590;2023-08-06T13:41:10;16.34;84.69
70246;SHT30;57637;49.272;8.590;2023-08-06T13:43:35;16.39;84.79
70246;SHT30;57637;49.272;8.590;2023-08-06T13:46:00;16.49;84.61
70246;SHT30;57637;49.272;8.590;2023-08-06T13:48:26;16.52;84.51
70246;SHT30;57637;49.272;8.590;2023-08-06T13:50:51;16.59;84.31
70246;SHT30;57637;49.272;8.590;2023-08-06T13:53:16;16.60;83.99
70246;SHT30;57637;49.272;8.590;2023-08-06T13:55:42;16.63;84.10
70246;SHT30;57637;49.272;8.590;2023-08-06T13:58:07;16.80;83.89
70246;SHT30;57637;49.272;8.590;2023-08-06T14:00:33;16.87;83.80
70246;SHT30;57637;49.272;8.590;2023-08-06T14:03:00;16.84;83.72
70246;SHT30;57637;49.272;8.590;2023-08-06T14:05:25;16.77;84.09
70246;SHT30;57637;49.272;8.590;2023-08-06T14:07:51;16.87;84.05
70246;SHT30;57637;49.272;8.590;2023-08-06T14:10:16;16.87;83.94
70246;SHT30;57637;49.272;8.590;2023-08-06T14:12:41;16.77;83.73
70246;SHT30;57637;49.272;8.590;2023-08-06T14:15:07;16.73;83.69
70246;SHT30;57637;49.272;8.590;2023-08-06T14:17:33;16.84;83.12
70246;SHT30;57637;49.272;8.590;2023-08-06T14:19:58;16.81;82.95
70246;SHT30;57637;49.272;8.590;2023-08-06T14:22:25;16.90;83.18
70246;SHT30;57637;49.272;8.590;2023-08-06T14:24:51;16.95;82.95
70246;SHT30;57637;49.272;8.590;2023-08-06T14:27:16;17.06;82.79
70246;SHT30;57637;49.272;8.590;2023-08-06T14:29:41;17.04;83.39
70246;SHT30;57637;49.272;8.590;2023-08-06T14:32:07;17.08;83.37
70246;SHT30;57637;49.272;8.590;2023-08-06T14:34:32;17.14;83.34
70246;SHT30;57637;49.272;8.590;2023-08-06T14:36:57;17.18;83.49
70246;SHT30;57637;49.272;8.590;2023-08-06T14:39:24;17.21;83.26
70246;SHT30;57637;49.272;8.590;2023-08-06T14:41:49;17.27;83.61
70246;SHT30;57637;49.272;8.590;2023-08-06T14:44:15;17.30;83.56
70246;SHT30;57637;49.272;8.590;2023-08-06T14:46:40;17.34;83.05
70246;SHT30;57637;49.272;8.590;2023-08-06T14:49:06;17.25;83.23
70246;SHT30;57637;49.272;8.590;2023-08-06T14:51:31;17.11;83.40
70246;SHT30;57637;49.272;8.590;2023-08-06T14:53:57;16.77;83.56
70246;SHT30;57637;49.272;8.590;2023-08-06T14:56:22;16.43;83.92
70246;SHT30;57637;49.272;8.590;2023-08-06T14:58:48;16.18;84.52
70246;SHT30;57637;49.272;8.590;2023-08-06T15:01:13;16.11;85.28
70246;SHT30;57637;49.272;8.590;2023-08-06T15:03:39;15.91;85.42
70246;SHT30;57637;49.272;8.590;2023-08-06T15:06:04;15.78;86.02
70246;SHT30;57637;49.272;8.590;2023-08-06T15:08:29;15.70;85.87
70246;SHT30;57637;49.272;8.590;2023-08-06T15:10:55;15.68;86.12
70246;SHT30;57637;49.272;8.590;2023-08-06T15:13:20;15.74;86.05
70246;SHT30;57637;49.272;8.590;2023-08-06T15:15:46;15.84;86.14
70246;SHT30;57637;49.272;8.590;2023-08-06T15:18:12;15.81;85.84
70246;SHT30;57637;49.272;8.590;2023-08-06T15:20:37;15.91;85.70
70246;SHT30;57637;49.272;8.590;2023-08-06T15:23:03;16.00;85.57
70246;SHT30;57637;49.272;8.590;2023-08-06T15:25:28;16.15;85.24
70246;SHT30;57637;49.272;8.590;2023-08-06T15:27:53;16.26;84.64
70246;SHT30;57637;49.272;8.590;2023-08-06T15:30:19;16.30;84.51
70246;SHT30;57637;49.272;8.590;2023-08-06T15:32:45;16.30;84.55
70246;SHT30;57637;49.272;8.590;2023-08-06T15:35:14;16.22;84.53
70246;SHT30;57637;49.272;8.590;2023-08-06T15:37:39;16.23;84.69